createdAt,value
2024-05-09T00:00:38.545Z,100
2024-05-09T00:05:31.370Z,100
2024-05-09T00:10:36.129Z,100
2024-05-09T00:15:31.375Z,100
2024-05-09T00:20:37.729Z,100
2024-05-09T00:25:31.248Z,100
2024-05-09T00:30:35.039Z,100
2024-05-09T00:35:31.401Z,100
2024-05-09T00:40:38.709Z,100
2024-05-09T00:45:31.308Z,100
2024-05-09T00:50:36.402Z,100
2024-05-09T00:55:31.453Z,100
2024-05-09T01:00:38.239Z,100
2024-05-09T01:05:31.957Z,100
2024-05-09T01:10:34.200Z,100
2024-05-09T01:15:31.257Z,100
2024-05-09T01:20:39.891Z,100
2024-05-09T01:25:32.727Z,100
2024-05-09T01:30:35.117Z,100
2024-05-09T01:35:31.445Z,100
2024-05-09T01:40:36.999Z,100
2024-05-09T01:45:31.447Z,100
2024-05-09T01:50:39.322Z,100
2024-05-09T01:55:31.322Z,100
2024-05-09T02:00:38.410Z,100
2024-05-09T02:05:31.375Z,100
2024-05-09T02:10:32.999Z,100
2024-05-09T02:15:31.311Z,100
2024-05-09T02:20:36.014Z,100
2024-05-09T02:25:31.330Z,100
2024-05-09T02:30:39.247Z,100
2024-05-09T02:35:31.462Z,100
2024-05-09T02:40:36.449Z,100
2024-05-09T02:45:31.373Z,100
2024-05-09T02:50:37.703Z,100
2024-05-09T02:55:31.407Z,100
2024-05-09T03:00:38.242Z,100
2024-05-09T03:05:31.495Z,100
2024-05-09T03:10:35.784Z,100
2024-05-09T03:15:32.636Z,100
2024-05-09T03:20:34.817Z,100
2024-05-09T03:25:31.426Z,100
2024-05-09T03:30:39.867Z,100
2024-05-09T03:35:31.420Z,100
2024-05-09T03:40:31.543Z,100
2024-05-09T03:45:31.471Z,100
2024-05-09T03:50:35.501Z,100
2024-05-09T03:55:31.555Z,100
2024-05-09T04:00:37.724Z,100
2024-05-09T04:05:32.526Z,100
2024-05-09T04:10:34.101Z,100
2024-05-09T04:15:31.942Z,100
2024-05-09T04:20:38.099Z,100
2024-05-09T04:25:31.480Z,100
2024-05-09T04:30:37.802Z,100
2024-05-09T04:35:31.629Z,100
2024-05-09T04:40:35.020Z,100
2024-05-09T04:45:31.563Z,100
2024-05-09T04:50:36.910Z,100
2024-05-09T04:55:31.570Z,100
2024-05-09T05:00:36.327Z,100
2024-05-09T05:05:31.557Z,100
2024-05-09T05:10:35.919Z,100
2024-05-09T05:15:31.473Z,100
2024-05-09T05:20:33.780Z,100
2024-05-09T05:25:31.543Z,100
2024-05-09T05:30:34.633Z,100
2024-05-09T05:35:31.670Z,100
2024-05-09T05:40:36.488Z,100
2024-05-09T05:45:31.531Z,98.28613
2024-05-09T05:50:35.587Z,98.1875
2024-05-09T05:55:31.516Z,97.2168
2024-05-09T06:00:37.893Z,95.77734
2024-05-09T06:05:31.638Z,94.37598
2024-05-09T06:10:37.847Z,94.48535
2024-05-09T06:15:31.514Z,84.33203
2024-05-09T06:20:35.961Z,76.57422
2024-05-09T06:25:31.558Z,71.7998
2024-05-09T06:30:38.608Z,69.97363
2024-05-09T06:35:31.908Z,64.73828
2024-05-09T06:40:36.978Z,63.30664
2024-05-09T06:45:31.583Z,61.125
2024-05-09T06:50:37.289Z,58.94922
2024-05-09T06:55:31.564Z,57.44434
2024-05-09T07:00:38.766Z,54.5
2024-05-09T07:05:31.737Z,52.36816
2024-05-09T07:10:35.157Z,50.14355
2024-05-09T07:15:31.620Z,48.01563
2024-05-09T07:20:34.724Z,47.30469
2024-05-09T07:25:31.792Z,46.38379
2024-05-09T07:30:34.345Z,45.89551
2024-05-09T07:35:31.861Z,46.16504
2024-05-09T07:40:36.026Z,45.91895
2024-05-09T07:45:47.580Z,44.20508
2024-05-09T07:52:23.725Z,42.20313
2024-05-09T07:55:31.823Z,43.34375
2024-05-09T08:00:32.279Z,40.7002
2024-05-09T08:05:31.894Z,40.5918
2024-05-09T08:10:31.697Z,39.53809
2024-05-09T08:15:31.714Z,38.50098
2024-05-09T08:20:35.165Z,36.65918
2024-05-09T08:25:31.733Z,35.05469
2024-05-09T08:30:36.792Z,34.83984
2024-05-09T08:35:31.719Z,36.20117
2024-05-09T08:40:35.334Z,33.80859
2024-05-09T08:45:31.784Z,34.48926
2024-05-09T08:50:38.037Z,34.67676
2024-05-09T08:55:31.738Z,34.87305
2024-05-09T09:00:36.899Z,35.9248
2024-05-09T09:05:33.298Z,33.87012
2024-05-09T09:10:33.419Z,33.8457
2024-05-09T09:15:31.791Z,33.63281
2024-05-09T09:20:36.427Z,33.53809
2024-05-09T09:25:31.917Z,34.43848
2024-05-09T09:30:36.859Z,33.67188
2024-05-09T09:35:31.833Z,33.50879
2024-05-09T09:40:34.931Z,33.75195
2024-05-09T09:45:33.521Z,33.63574
2024-05-09T09:50:34.892Z,35.53418
2024-05-09T09:55:31.977Z,33.22949
2024-05-09T10:00:33.518Z,34.17285
2024-05-09T10:05:32.320Z,36.08008
2024-05-09T10:10:33.150Z,34.45117
2024-05-09T10:15:31.917Z,33.48047
2024-05-09T10:20:41.769Z,32.55859
2024-05-09T10:25:31.889Z,35.57129
2024-05-09T10:30:36.087Z,38.29883
2024-05-09T10:35:35.002Z,39.35254
2024-05-09T10:40:32.435Z,36.02441
2024-05-09T10:45:31.893Z,33.71777
2024-05-09T10:50:34.349Z,35.39258
2024-05-09T10:55:32.106Z,32.86328
2024-05-09T11:00:37.247Z,30.94727
2024-05-09T11:05:33.739Z,30.37793
2024-05-09T11:10:34.208Z,30.9209
2024-05-09T11:15:40.931Z,30.13379
2024-05-09T11:20:41.530Z,32.67188
2024-05-09T11:25:33.014Z,33.66895
2024-05-09T11:30:35.041Z,32.41895
2024-05-09T11:35:32.944Z,32.17871
2024-05-09T11:40:34.435Z,31.99902
2024-05-09T11:45:31.905Z,33.48145
2024-05-09T11:50:35.567Z,31.07813
2024-05-09T11:55:36.004Z,30.95703
2024-05-09T12:00:36.712Z,31.28125
2024-05-09T12:05:32.212Z,31.90137
2024-05-09T12:10:34.701Z,32.68262
2024-05-09T12:15:31.964Z,31.99414
2024-05-09T12:20:37.173Z,30.91211
2024-05-09T12:25:31.927Z,32.73828
2024-05-09T12:30:37.399Z,32.15918
2024-05-09T12:35:31.987Z,32.77441
2024-05-09T12:40:36.652Z,32.76855
2024-05-09T12:45:32.305Z,31.92285
2024-05-09T12:50:34.061Z,33.8291
2024-05-09T12:55:40.166Z,37.78418
2024-05-09T13:00:34.227Z,39.05176
2024-05-09T13:05:32.273Z,38.75781
2024-05-09T13:10:33.373Z,36.53125
2024-05-09T13:15:32.008Z,34.55469
2024-05-09T13:20:34.533Z,35.93066
2024-05-09T13:25:32.084Z,37.80957
2024-05-09T13:30:39.262Z,38.36523
2024-05-09T13:35:32.053Z,39.87695
2024-05-09T13:40:34.859Z,39.2334
2024-05-09T13:45:32.192Z,38.2373
2024-05-09T13:50:36.241Z,39.00098
2024-05-09T13:55:32.031Z,37.67871
2024-05-09T14:00:42.745Z,39.62891
2024-05-09T14:05:32.191Z,39.37598
2024-05-09T14:10:32.688Z,39.05078
2024-05-09T14:15:32.122Z,38.80469
2024-05-09T14:20:32.687Z,38.1543
2024-05-09T14:25:35.207Z,37.94824
2024-05-09T14:30:37.077Z,37.82227
2024-05-09T14:35:32.081Z,39.05566
2024-05-09T14:40:40.246Z,39.94922
2024-05-09T14:45:32.199Z,39.61133
2024-05-09T14:50:36.745Z,38.53516
2024-05-09T14:55:32.188Z,40.70117
2024-05-09T15:00:35.750Z,44.0918
2024-05-09T15:05:32.170Z,45.8877
2024-05-09T15:10:35.639Z,46.20996
2024-05-09T15:15:32.226Z,46.56543
2024-05-09T15:20:35.915Z,46.71191
2024-05-09T15:25:32.088Z,46.32617
2024-05-09T15:30:33.806Z,46.76074
2024-05-09T15:35:32.211Z,46.38574
2024-05-09T15:40:39.162Z,47.62207
2024-05-09T15:45:32.838Z,49.75
2024-05-09T15:50:38.185Z,50.29004
2024-05-09T15:55:33.359Z,50.85156
2024-05-09T16:00:38.024Z,51.83594
2024-05-09T16:05:32.226Z,52.1084
2024-05-09T16:10:33.905Z,51.95215
2024-05-09T16:15:32.486Z,52.6123
2024-05-09T16:20:38.934Z,53.19043
2024-05-09T16:25:32.242Z,53.01367
2024-05-09T16:30:35.373Z,52.35547
2024-05-09T16:35:32.242Z,52.68652
2024-05-09T16:40:38.024Z,53.35156
2024-05-09T16:45:32.272Z,53.58203
2024-05-09T16:50:34.390Z,52.74414
2024-05-09T16:55:32.266Z,51.62402
2024-05-09T17:00:40.173Z,49.72949
2024-05-09T17:05:32.338Z,48.21875
2024-05-09T17:10:34.374Z,45.91699
2024-05-09T17:15:32.655Z,46.90625
2024-05-09T17:20:35.657Z,48.16406
2024-05-09T17:25:32.359Z,47.16699
2024-05-09T17:30:36.080Z,47.4668
2024-05-09T17:35:32.270Z,48.11426
2024-05-09T17:40:35.858Z,51.58105
2024-05-09T17:45:32.505Z,53.7666
2024-05-09T17:50:35.836Z,55.90332
2024-05-09T17:55:32.490Z,57.58301
2024-05-09T18:00:38.193Z,59.3418
2024-05-09T18:05:32.969Z,59.86328
2024-05-09T18:10:36.846Z,60.84082
2024-05-09T18:15:32.561Z,60.99121
2024-05-09T18:20:40.855Z,61.29297
2024-05-09T18:25:32.246Z,60.91699
2024-05-09T18:30:35.384Z,61.08887
2024-05-09T18:35:32.303Z,61.80762
2024-05-09T18:40:35.890Z,62.70898
2024-05-09T18:45:32.665Z,63.9502
2024-05-09T18:50:36.744Z,65.06641
2024-05-09T18:55:32.333Z,66.45117
2024-05-09T19:00:36.339Z,67.7334
2024-05-09T19:05:32.656Z,68.55176
2024-05-09T19:10:34.946Z,69.53516
2024-05-09T19:15:32.459Z,70.02441
2024-05-09T19:20:35.119Z,71
2024-05-09T19:25:32.338Z,71.05566
2024-05-09T19:30:38.884Z,72.11328
2024-05-09T19:35:32.441Z,72.74805
2024-05-09T19:40:34.148Z,73.15137
2024-05-09T19:45:32.526Z,73.69434
2024-05-09T19:50:40.351Z,74.06934
2024-05-09T19:55:32.431Z,74.4668
2024-05-09T20:00:35.977Z,75.22266
2024-05-09T20:05:32.824Z,75.98926
2024-05-09T20:10:34.693Z,76.76953
2024-05-09T20:15:32.439Z,77.78223
2024-05-09T20:20:38.069Z,79.27539
2024-05-09T20:25:32.407Z,79.75586
2024-05-09T20:30:34.054Z,79.54199
2024-05-09T20:35:33.777Z,80.75
2024-05-09T20:40:36.122Z,81.64355
2024-05-09T20:45:32.551Z,82.00586
2024-05-09T20:50:38.109Z,81.83105
2024-05-09T20:55:32.518Z,83.94434
2024-05-09T21:00:39.493Z,85.54199
2024-05-09T21:05:32.553Z,84.69727
2024-05-09T21:10:33.966Z,86.59375
2024-05-09T21:15:32.464Z,87.12598
2024-05-09T21:20:34.085Z,86.15625
2024-05-09T21:25:32.546Z,87.02051
2024-05-09T21:30:40.652Z,88.91699
2024-05-09T21:35:32.419Z,89.75684
2024-05-09T21:40:35.186Z,90.49902
2024-05-09T21:45:32.602Z,91.0957
2024-05-09T21:50:39.256Z,91.14648
2024-05-09T21:55:32.459Z,92.48633
2024-05-09T22:00:37.551Z,91.76465
2024-05-09T22:05:32.724Z,92.19141
2024-05-09T22:10:35.439Z,93.71484
2024-05-09T22:15:33.456Z,93.47266
2024-05-09T22:20:37.322Z,93.16113
2024-05-09T22:25:33.010Z,93.69531
2024-05-09T22:30:37.074Z,93.90234
2024-05-09T22:35:32.473Z,95.43848
2024-05-09T22:40:42.256Z,96.9541
2024-05-09T22:45:32.646Z,96.41406
2024-05-09T22:50:33.573Z,96.40723
2024-05-09T22:55:32.536Z,96.51074
2024-05-09T23:00:33.281Z,96.50586
2024-05-09T23:05:33.039Z,96.46777
2024-05-09T23:10:36.595Z,96.59961
2024-05-09T23:15:32.999Z,97.18164
2024-05-09T23:20:37.523Z,96.71973
2024-05-09T23:25:32.656Z,96.27637
2024-05-09T23:30:38.187Z,96.53711
2024-05-09T23:35:32.672Z,96.78516
2024-05-09T23:45:32.757Z,98.69531
2024-05-09T23:50:36.030Z,98.52637
2024-05-09T23:55:32.820Z,98.9873
